Terminal Aerodrome Forecast
Issued by NWS

Home | Current Version | Previous Version | Text Only | Print | Product List | Glossary On
Versions: 1 2 3 4 5 6 7 8 9 10 11 12 13
659
FTUS45 KABQ 301720
TAFROW
TAF
KROW 301720Z 3018/0118 18012G20KT P6SM BKN120
     FM010100 19008KT P6SM SCT120
     FM011200 VRB04KT P6SM SCT120=

USA.gov is the U.S. government's official web portal to all federal, state and local government web resources and services.